sensor_id;sensor_type;location;lat;lon;timestamp;P1;durP1;ratioP1;P2;durP2;ratioP2
73219;SDS011;61434;43.538;-5.688;2022-09-09T00:02:26;11.20;;;3.40;;
73219;SDS011;61434;43.538;-5.688;2022-09-09T00:05:04;8.40;;;2.72;;
73219;SDS011;61434;43.538;-5.688;2022-09-09T00:07:52;10.65;;;2.90;;
73219;SDS011;61434;43.538;-5.688;2022-09-09T00:10:22;11.52;;;2.90;;
73219;SDS011;61434;43.538;-5.688;2022-09-09T00:15:42;10.75;;;2.88;;
73219;SDS011;61434;43.538;-5.688;2022-09-09T00:18:33;10.10;;;2.60;;
73219;SDS011;61434;43.538;-5.688;2022-09-09T00:21:14;8.52;;;2.33;;
73219;SDS011;61434;43.538;-5.688;2022-09-09T00:23:48;10.00;;;2.70;;
73219;SDS011;61434;43.538;-5.688;2022-09-09T00:29:05;8.60;;;2.50;;
73219;SDS011;61434;43.538;-5.688;2022-09-09T00:31:41;10.30;;;2.70;;
73219;SDS011;61434;43.538;-5.688;2022-09-09T00:34:15;11.50;;;2.75;;
73219;SDS011;61434;43.538;-5.688;2022-09-09T00:36:44;11.90;;;2.50;;
73219;SDS011;61434;43.538;-5.688;2022-09-09T00:42:17;9.50;;;2.05;;
73219;SDS011;61434;43.538;-5.688;2022-09-09T00:44:52;9.95;;;2.20;;
73219;SDS011;61434;43.538;-5.688;2022-09-09T00:52:32;9.75;;;2.20;;
73219;SDS011;61434;43.538;-5.688;2022-09-09T00:58:14;16.00;;;3.30;;
73219;SDS011;61434;43.538;-5.688;2022-09-09T01:00:44;12.80;;;3.20;;
73219;SDS011;61434;43.538;-5.688;2022-09-09T01:05:46;17.25;;;3.97;;
73219;SDS011;61434;43.538;-5.688;2022-09-09T01:10:59;12.40;;;3.25;;
73219;SDS011;61434;43.538;-5.688;2022-09-09T01:13:33;14.77;;;2.40;;
73219;SDS011;61434;43.538;-5.688;2022-09-09T01:16:04;12.27;;;2.60;;
73219;SDS011;61434;43.538;-5.688;2022-09-09T01:18:37;14.05;;;2.30;;
73219;SDS011;61434;43.538;-5.688;2022-09-09T01:21:15;9.57;;;2.05;;
73219;SDS011;61434;43.538;-5.688;2022-09-09T01:27:00;10.70;;;1.83;;
73219;SDS011;61434;43.538;-5.688;2022-09-09T01:29:28;9.02;;;1.52;;
73219;SDS011;61434;43.538;-5.688;2022-09-09T01:31:55;8.50;;;1.50;;
73219;SDS011;61434;43.538;-5.688;2022-09-09T01:34:27;9.13;;;1.48;;
73219;SDS011;61434;43.538;-5.688;2022-09-09T01:37:06;10.88;;;1.80;;
73219;SDS011;61434;43.538;-5.688;2022-09-09T01:39:34;8.82;;;1.77;;
73219;SDS011;61434;43.538;-5.688;2022-09-09T01:42:02;8.27;;;1.75;;
73219;SDS011;61434;43.538;-5.688;2022-09-09T01:44:30;10.45;;;1.67;;
73219;SDS011;61434;43.538;-5.688;2022-09-09T01:46:56;7.65;;;1.60;;
73219;SDS011;61434;43.538;-5.688;2022-09-09T01:49:22;8.25;;;1.83;;
73219;SDS011;61434;43.538;-5.688;2022-09-09T01:51:49;13.52;;;1.70;;
73219;SDS011;61434;43.538;-5.688;2022-09-09T01:54:17;11.13;;;1.77;;
73219;SDS011;61434;43.538;-5.688;2022-09-09T02:05:11;12.52;;;3.33;;
73219;SDS011;61434;43.538;-5.688;2022-09-09T02:07:59;16.37;;;3.47;;
73219;SDS011;61434;43.538;-5.688;2022-09-09T02:10:31;16.38;;;2.20;;
73219;SDS011;61434;43.538;-5.688;2022-09-09T02:13:11;12.45;;;1.90;;
73219;SDS011;61434;43.538;-5.688;2022-09-09T02:19:08;9.57;;;1.50;;
73219;SDS011;61434;43.538;-5.688;2022-09-09T02:21:27;7.33;;;1.60;;
73219;SDS011;61434;43.538;-5.688;2022-09-09T02:23:55;7.82;;;1.45;;
73219;SDS011;61434;43.538;-5.688;2022-09-09T02:26:24;8.30;;;1.63;;
73219;SDS011;61434;43.538;-5.688;2022-09-09T02:28:51;7.63;;;1.92;;
73219;SDS011;61434;43.538;-5.688;2022-09-09T02:31:20;7.15;;;1.58;;
73219;SDS011;61434;43.538;-5.688;2022-09-09T02:33:49;10.60;;;1.57;;
73219;SDS011;61434;43.538;-5.688;2022-09-09T02:36:22;14.07;;;2.00;;
73219;SDS011;61434;43.538;-5.688;2022-09-09T02:38:50;7.85;;;1.80;;
73219;SDS011;61434;43.538;-5.688;2022-09-09T02:41:32;13.55;;;2.08;;
73219;SDS011;61434;43.538;-5.688;2022-09-09T02:44:14;8.82;;;2.25;;
73219;SDS011;61434;43.538;-5.688;2022-09-09T02:52:15;12.70;;;2.55;;
73219;SDS011;61434;43.538;-5.688;2022-09-09T02:54:43;16.10;;;2.63;;
73219;SDS011;61434;43.538;-5.688;2022-09-09T02:59:47;12.23;;;2.77;;
73219;SDS011;61434;43.538;-5.688;2022-09-09T03:02:14;13.88;;;3.72;;
73219;SDS011;61434;43.538;-5.688;2022-09-09T03:04:39;16.00;;;4.73;;
73219;SDS011;61434;43.538;-5.688;2022-09-09T03:07:08;21.58;;;5.03;;
73219;SDS011;61434;43.538;-5.688;2022-09-09T03:09:34;17.63;;;5.18;;
73219;SDS011;61434;43.538;-5.688;2022-09-09T03:12:00;19.60;;;5.40;;
73219;SDS011;61434;43.538;-5.688;2022-09-09T03:14:26;16.80;;;4.57;;
73219;SDS011;61434;43.538;-5.688;2022-09-09T03:16:52;19.23;;;4.03;;
73219;SDS011;61434;43.538;-5.688;2022-09-09T03:19:18;14.02;;;3.58;;
73219;SDS011;61434;43.538;-5.688;2022-09-09T03:21:44;9.33;;;2.33;;
73219;SDS011;61434;43.538;-5.688;2022-09-09T03:24:11;12.07;;;2.72;;
73219;SDS011;61434;43.538;-5.688;2022-09-09T03:26:36;9.50;;;2.13;;
73219;SDS011;61434;43.538;-5.688;2022-09-09T03:29:03;11.30;;;2.40;;
73219;SDS011;61434;43.538;-5.688;2022-09-09T03:31:31;9.73;;;1.90;;
73219;SDS011;61434;43.538;-5.688;2022-09-09T03:33:57;7.75;;;1.90;;
73219;SDS011;61434;43.538;-5.688;2022-09-09T03:36:23;8.83;;;2.00;;
73219;SDS011;61434;43.538;-5.688;2022-09-09T03:38:51;10.68;;;1.70;;
73219;SDS011;61434;43.538;-5.688;2022-09-09T03:41:16;9.60;;;1.70;;
73219;SDS011;61434;43.538;-5.688;2022-09-09T03:43:43;10.50;;;2.00;;
73219;SDS011;61434;43.538;-5.688;2022-09-09T03:46:09;9.48;;;1.98;;
73219;SDS011;61434;43.538;-5.688;2022-09-09T03:48:35;9.27;;;1.90;;
73219;SDS011;61434;43.538;-5.688;2022-09-09T03:51:00;8.60;;;1.77;;
73219;SDS011;61434;43.538;-5.688;2022-09-09T03:53:26;8.73;;;1.63;;
73219;SDS011;61434;43.538;-5.688;2022-09-09T03:55:53;10.23;;;1.83;;
73219;SDS011;61434;43.538;-5.688;2022-09-09T03:58:20;13.38;;;2.42;;
73219;SDS011;61434;43.538;-5.688;2022-09-09T04:00:59;12.30;;;2.30;;
73219;SDS011;61434;43.538;-5.688;2022-09-09T04:03:27;13.32;;;2.30;;
73219;SDS011;61434;43.538;-5.688;2022-09-09T04:05:54;11.65;;;2.70;;
73219;SDS011;61434;43.538;-5.688;2022-09-09T04:08:21;10.30;;;2.38;;
73219;SDS011;61434;43.538;-5.688;2022-09-09T04:10:50;11.75;;;2.10;;
73219;SDS011;61434;43.538;-5.688;2022-09-09T04:13:16;14.02;;;2.60;;
73219;SDS011;61434;43.538;-5.688;2022-09-09T04:15:43;6.13;;;1.95;;
73219;SDS011;61434;43.538;-5.688;2022-09-09T04:18:10;11.10;;;2.20;;
73219;SDS011;61434;43.538;-5.688;2022-09-09T04:20:36;7.72;;;2.00;;
73219;SDS011;61434;43.538;-5.688;2022-09-09T04:23:02;14.07;;;2.60;;
73219;SDS011;61434;43.538;-5.688;2022-09-09T04:25:28;12.60;;;2.30;;
73219;SDS011;61434;43.538;-5.688;2022-09-09T04:27:54;11.40;;;2.05;;
73219;SDS011;61434;43.538;-5.688;2022-09-09T04:30:21;10.00;;;1.90;;
73219;SDS011;61434;43.538;-5.688;2022-09-09T04:32:47;9.80;;;1.90;;
73219;SDS011;61434;43.538;-5.688;2022-09-09T04:35:12;10.40;;;2.00;;
73219;SDS011;61434;43.538;-5.688;2022-09-09T04:37:38;9.27;;;1.90;;
73219;SDS011;61434;43.538;-5.688;2022-09-09T04:40:03;8.53;;;2.00;;
73219;SDS011;61434;43.538;-5.688;2022-09-09T04:42:30;9.00;;;1.50;;
73219;SDS011;61434;43.538;-5.688;2022-09-09T04:44:59;8.55;;;1.73;;
73219;SDS011;61434;43.538;-5.688;2022-09-09T04:47:24;10.70;;;2.10;;
73219;SDS011;61434;43.538;-5.688;2022-09-09T04:49:50;11.53;;;2.03;;
73219;SDS011;61434;43.538;-5.688;2022-09-09T04:52:16;9.55;;;1.90;;
73219;SDS011;61434;43.538;-5.688;2022-09-09T04:54:42;9.43;;;1.77;;
73219;SDS011;61434;43.538;-5.688;2022-09-09T04:57:07;8.20;;;1.70;;
73219;SDS011;61434;43.538;-5.688;2022-09-09T04:59:35;10.23;;;1.55;;
73219;SDS011;61434;43.538;-5.688;2022-09-09T05:02:01;8.17;;;1.73;;
73219;SDS011;61434;43.538;-5.688;2022-09-09T05:04:27;8.00;;;1.70;;
73219;SDS011;61434;43.538;-5.688;2022-09-09T05:06:53;6.47;;;1.60;;
73219;SDS011;61434;43.538;-5.688;2022-09-09T05:09:19;9.07;;;1.85;;
73219;SDS011;61434;43.538;-5.688;2022-09-09T05:11:44;9.37;;;2.23;;
73219;SDS011;61434;43.538;-5.688;2022-09-09T05:14:10;7.35;;;1.38;;
73219;SDS011;61434;43.538;-5.688;2022-09-09T05:16:37;9.65;;;1.90;;
73219;SDS011;61434;43.538;-5.688;2022-09-09T05:19:03;8.60;;;2.00;;
73219;SDS011;61434;43.538;-5.688;2022-09-09T05:21:28;9.50;;;1.88;;
73219;SDS011;61434;43.538;-5.688;2022-09-09T05:23:55;9.00;;;1.70;;
73219;SDS011;61434;43.538;-5.688;2022-09-09T05:26:21;11.23;;;1.90;;
73219;SDS011;61434;43.538;-5.688;2022-09-09T05:28:47;9.98;;;1.63;;
73219;SDS011;61434;43.538;-5.688;2022-09-09T05:31:13;9.63;;;1.90;;
73219;SDS011;61434;43.538;-5.688;2022-09-09T05:33:41;7.95;;;1.58;;
73219;SDS011;61434;43.538;-5.688;2022-09-09T05:36:09;10.40;;;1.90;;
73219;SDS011;61434;43.538;-5.688;2022-09-09T05:38:38;11.25;;;1.85;;
73219;SDS011;61434;43.538;-5.688;2022-09-09T05:41:05;10.88;;;1.80;;
73219;SDS011;61434;43.538;-5.688;2022-09-09T05:43:32;11.82;;;1.95;;
73219;SDS011;61434;43.538;-5.688;2022-09-09T05:46:10;11.43;;;2.00;;
73219;SDS011;61434;43.538;-5.688;2022-09-09T05:48:38;7.32;;;2.05;;
73219;SDS011;61434;43.538;-5.688;2022-09-09T05:51:06;10.90;;;2.17;;
73219;SDS011;61434;43.538;-5.688;2022-09-09T05:53:37;9.52;;;1.60;;
73219;SDS011;61434;43.538;-5.688;2022-09-09T05:56:10;11.30;;;2.08;;
73219;SDS011;61434;43.538;-5.688;2022-09-09T05:58:39;10.63;;;1.90;;
73219;SDS011;61434;43.538;-5.688;2022-09-09T06:03:38;7.90;;;2.00;;
73219;SDS011;61434;43.538;-5.688;2022-09-09T06:06:09;9.90;;;2.20;;
73219;SDS011;61434;43.538;-5.688;2022-09-09T06:08:39;9.50;;;2.30;;
73219;SDS011;61434;43.538;-5.688;2022-09-09T06:11:12;10.50;;;1.80;;
73219;SDS011;61434;43.538;-5.688;2022-09-09T06:13:42;10.50;;;2.25;;
73219;SDS011;61434;43.538;-5.688;2022-09-09T06:16:09;12.13;;;2.33;;
73219;SDS011;61434;43.538;-5.688;2022-09-09T06:18:37;10.43;;;1.80;;
73219;SDS011;61434;43.538;-5.688;2022-09-09T06:21:04;16.10;;;2.47;;
73219;SDS011;61434;43.538;-5.688;2022-09-09T06:23:32;14.80;;;2.60;;
73219;SDS011;61434;43.538;-5.688;2022-09-09T06:26:09;15.30;;;2.25;;
73219;SDS011;61434;43.538;-5.688;2022-09-09T06:28:37;7.87;;;1.90;;
73219;SDS011;61434;43.538;-5.688;2022-09-09T06:31:07;13.25;;;2.38;;
73219;SDS011;61434;43.538;-5.688;2022-09-09T06:33:34;11.52;;;2.78;;
73219;SDS011;61434;43.538;-5.688;2022-09-09T06:36:06;12.85;;;2.35;;
73219;SDS011;61434;43.538;-5.688;2022-09-09T06:38:36;12.00;;;3.10;;
73219;SDS011;61434;43.538;-5.688;2022-09-09T06:41:01;13.83;;;2.70;;
73219;SDS011;61434;43.538;-5.688;2022-09-09T06:43:27;15.60;;;3.00;;
73219;SDS011;61434;43.538;-5.688;2022-09-09T06:45:56;11.70;;;3.25;;
73219;SDS011;61434;43.538;-5.688;2022-09-09T06:48:33;18.77;;;4.13;;
73219;SDS011;61434;43.538;-5.688;2022-09-09T06:51:09;8.73;;;2.67;;
73219;SDS011;61434;43.538;-5.688;2022-09-09T06:53:38;10.15;;;2.42;;
73219;SDS011;61434;43.538;-5.688;2022-09-09T06:58:36;14.00;;;2.50;;
73219;SDS011;61434;43.538;-5.688;2022-09-09T07:01:08;17.40;;;2.90;;
73219;SDS011;61434;43.538;-5.688;2022-09-09T07:03:35;12.32;;;3.50;;
73219;SDS011;61434;43.538;-5.688;2022-09-09T07:06:01;15.40;;;3.70;;
73219;SDS011;61434;43.538;-5.688;2022-09-09T07:08:27;12.23;;;4.38;;
73219;SDS011;61434;43.538;-5.688;2022-09-09T07:10:53;12.05;;;3.63;;
73219;SDS011;61434;43.538;-5.688;2022-09-09T07:13:23;9.23;;;3.20;;
73219;SDS011;61434;43.538;-5.688;2022-09-09T07:15:50;12.48;;;3.50;;
73219;SDS011;61434;43.538;-5.688;2022-09-09T07:18:16;12.50;;;4.00;;
73219;SDS011;61434;43.538;-5.688;2022-09-09T07:20:42;12.98;;;4.10;;
73219;SDS011;61434;43.538;-5.688;2022-09-09T07:23:07;13.50;;;3.70;;
73219;SDS011;61434;43.538;-5.688;2022-09-09T07:25:33;10.87;;;3.03;;
73219;SDS011;61434;43.538;-5.688;2022-09-09T07:27:58;14.20;;;3.50;;
73219;SDS011;61434;43.538;-5.688;2022-09-09T07:30:24;13.00;;;3.30;;
73219;SDS011;61434;43.538;-5.688;2022-09-09T07:32:50;10.63;;;3.13;;
73219;SDS011;61434;43.538;-5.688;2022-09-09T07:35:18;12.88;;;2.80;;
73219;SDS011;61434;43.538;-5.688;2022-09-09T07:37:44;10.57;;;3.00;;
73219;SDS011;61434;43.538;-5.688;2022-09-09T07:40:10;8.77;;;2.20;;
73219;SDS011;61434;43.538;-5.688;2022-09-09T07:42:35;9.60;;;2.50;;
73219;SDS011;61434;43.538;-5.688;2022-09-09T07:45:02;11.48;;;2.65;;
73219;SDS011;61434;43.538;-5.688;2022-09-09T07:47:29;12.32;;;4.45;;
73219;SDS011;61434;43.538;-5.688;2022-09-09T07:49:54;10.63;;;4.28;;
73219;SDS011;61434;43.538;-5.688;2022-09-09T07:52:20;9.00;;;3.10;;
73219;SDS011;61434;43.538;-5.688;2022-09-09T07:54:46;9.27;;;3.13;;
73219;SDS011;61434;43.538;-5.688;2022-09-09T07:57:12;10.73;;;3.70;;
73219;SDS011;61434;43.538;-5.688;2022-09-09T07:59:38;13.35;;;4.05;;
73219;SDS011;61434;43.538;-5.688;2022-09-09T08:02:03;14.40;;;3.93;;
73219;SDS011;61434;43.538;-5.688;2022-09-09T08:04:29;11.55;;;3.83;;
73219;SDS011;61434;43.538;-5.688;2022-09-09T08:06:56;11.75;;;3.55;;
73219;SDS011;61434;43.538;-5.688;2022-09-09T08:09:23;11.95;;;3.60;;
73219;SDS011;61434;43.538;-5.688;2022-09-09T08:11:54;15.75;;;4.85;;
73219;SDS011;61434;43.538;-5.688;2022-09-09T08:14:21;12.60;;;4.15;;
73219;SDS011;61434;43.538;-5.688;2022-09-09T08:16:48;12.82;;;4.07;;
73219;SDS011;61434;43.538;-5.688;2022-09-09T08:19:15;12.95;;;3.60;;
73219;SDS011;61434;43.538;-5.688;2022-09-09T08:21:41;12.52;;;3.75;;
73219;SDS011;61434;43.538;-5.688;2022-09-09T08:24:09;10.65;;;4.07;;
73219;SDS011;61434;43.538;-5.688;2022-09-09T08:26:40;14.60;;;3.88;;
73219;SDS011;61434;43.538;-5.688;2022-09-09T08:29:07;14.85;;;4.35;;
73219;SDS011;61434;43.538;-5.688;2022-09-09T08:31:39;15.60;;;5.20;;
73219;SDS011;61434;43.538;-5.688;2022-09-09T08:34:09;13.52;;;4.65;;
73219;SDS011;61434;43.538;-5.688;2022-09-09T08:36:44;11.63;;;5.10;;
73219;SDS011;61434;43.538;-5.688;2022-09-09T08:39:11;13.98;;;5.22;;
73219;SDS011;61434;43.538;-5.688;2022-09-09T08:49:55;14.65;;;5.70;;
73219;SDS011;61434;43.538;-5.688;2022-09-09T08:52:39;11.77;;;6.07;;
73219;SDS011;61434;43.538;-5.688;2022-09-09T08:55:24;12.80;;;6.40;;
73219;SDS011;61434;43.538;-5.688;2022-09-09T08:57:54;12.27;;;7.10;;
73219;SDS011;61434;43.538;-5.688;2022-09-09T09:00:22;11.77;;;7.03;;
73219;SDS011;61434;43.538;-5.688;2022-09-09T09:06:04;11.25;;;7.55;;
73219;SDS011;61434;43.538;-5.688;2022-09-09T09:11:10;13.87;;;7.57;;
73219;SDS011;61434;43.538;-5.688;2022-09-09T09:16:09;11.00;;;4.75;;
73219;SDS011;61434;43.538;-5.688;2022-09-09T09:18:57;19.20;;;10.93;;
73219;SDS011;61434;43.538;-5.688;2022-09-09T09:21:32;14.77;;;10.10;;
73219;SDS011;61434;43.538;-5.688;2022-09-09T09:24:03;10.90;;;9.10;;
73219;SDS011;61434;43.538;-5.688;2022-09-09T09:26:40;10.38;;;5.05;;
73219;SDS011;61434;43.538;-5.688;2022-09-09T09:29:10;8.75;;;4.63;;
73219;SDS011;61434;43.538;-5.688;2022-09-09T09:31:42;8.10;;;3.83;;
73219;SDS011;61434;43.538;-5.688;2022-09-09T09:34:14;9.18;;;5.18;;
73219;SDS011;61434;43.538;-5.688;2022-09-09T09:39:21;11.07;;;5.90;;
73219;SDS011;61434;43.538;-5.688;2022-09-09T09:41:51;11.07;;;5.50;;
73219;SDS011;61434;43.538;-5.688;2022-09-09T09:44:38;10.57;;;6.90;;
73219;SDS011;61434;43.538;-5.688;2022-09-09T09:52:20;10.87;;;6.23;;
73219;SDS011;61434;43.538;-5.688;2022-09-09T09:54:48;11.55;;;5.85;;
73219;SDS011;61434;43.538;-5.688;2022-09-09T09:57:15;8.23;;;3.83;;
73219;SDS011;61434;43.538;-5.688;2022-09-09T09:59:43;8.77;;;5.38;;
73219;SDS011;61434;43.538;-5.688;2022-09-09T10:04:43;10.65;;;5.57;;
73219;SDS011;61434;43.538;-5.688;2022-09-09T10:07:18;9.27;;;5.18;;
73219;SDS011;61434;43.538;-5.688;2022-09-09T10:09:45;23.15;;;8.95;;
73219;SDS011;61434;43.538;-5.688;2022-09-09T10:12:21;11.85;;;6.80;;
73219;SDS011;61434;43.538;-5.688;2022-09-09T10:15:29;10.83;;;4.30;;
73219;SDS011;61434;43.538;-5.688;2022-09-09T10:29:44;8.07;;;2.77;;
73219;SDS011;61434;43.538;-5.688;2022-09-09T10:49:10;5.82;;;2.40;;
73219;SDS011;61434;43.538;-5.688;2022-09-09T10:54:47;9.80;;;2.72;;
73219;SDS011;61434;43.538;-5.688;2022-09-09T10:57:25;7.38;;;2.38;;
73219;SDS011;61434;43.538;-5.688;2022-09-09T10:59:58;7.88;;;2.50;;
73219;SDS011;61434;43.538;-5.688;2022-09-09T11:02:27;6.53;;;2.72;;
73219;SDS011;61434;43.538;-5.688;2022-09-09T11:05:00;7.20;;;2.45;;
73219;SDS011;61434;43.538;-5.688;2022-09-09T11:13:15;5.90;;;2.75;;
73219;SDS011;61434;43.538;-5.688;2022-09-09T11:15:50;6.85;;;1.80;;
73219;SDS011;61434;43.538;-5.688;2022-09-09T11:18:38;9.70;;;2.17;;
73219;SDS011;61434;43.538;-5.688;2022-09-09T11:21:12;7.25;;;1.85;;
73219;SDS011;61434;43.538;-5.688;2022-09-09T11:23:47;5.68;;;1.92;;
73219;SDS011;61434;43.538;-5.688;2022-09-09T11:26:20;8.20;;;1.80;;
73219;SDS011;61434;43.538;-5.688;2022-09-09T11:29:07;5.60;;;1.80;;
73219;SDS011;61434;43.538;-5.688;2022-09-09T11:31:46;8.85;;;1.88;;
73219;SDS011;61434;43.538;-5.688;2022-09-09T11:34:36;5.97;;;1.80;;
73219;SDS011;61434;43.538;-5.688;2022-09-09T11:42:32;6.47;;;1.95;;
73219;SDS011;61434;43.538;-5.688;2022-09-09T11:44:58;5.67;;;1.80;;
73219;SDS011;61434;43.538;-5.688;2022-09-09T11:47:34;5.13;;;1.80;;
73219;SDS011;61434;43.538;-5.688;2022-09-09T11:50:10;7.80;;;1.73;;
73219;SDS011;61434;43.538;-5.688;2022-09-09T11:52:43;6.43;;;1.80;;
73219;SDS011;61434;43.538;-5.688;2022-09-09T11:55:29;5.95;;;1.77;;
73219;SDS011;61434;43.538;-5.688;2022-09-09T11:57:58;8.07;;;1.85;;
73219;SDS011;61434;43.538;-5.688;2022-09-09T12:00:33;6.72;;;1.85;;
73219;SDS011;61434;43.538;-5.688;2022-09-09T12:03:02;5.80;;;1.50;;
73219;SDS011;61434;43.538;-5.688;2022-09-09T12:05:39;7.07;;;1.85;;
73219;SDS011;61434;43.538;-5.688;2022-09-09T12:08:09;6.13;;;1.73;;
73219;SDS011;61434;43.538;-5.688;2022-09-09T12:10:38;5.30;;;1.73;;
73219;SDS011;61434;43.538;-5.688;2022-09-09T12:13:38;5.68;;;1.60;;
73219;SDS011;61434;43.538;-5.688;2022-09-09T12:15:58;6.82;;;1.83;;
73219;SDS011;61434;43.538;-5.688;2022-09-09T12:18:25;7.57;;;1.90;;
73219;SDS011;61434;43.538;-5.688;2022-09-09T12:23:58;7.40;;;2.05;;
73219;SDS011;61434;43.538;-5.688;2022-09-09T12:26:43;12.00;;;2.10;;
73219;SDS011;61434;43.538;-5.688;2022-09-09T12:34:44;13.13;;;2.10;;
73219;SDS011;61434;43.538;-5.688;2022-09-09T12:39:49;12.00;;;2.00;;
73219;SDS011;61434;43.538;-5.688;2022-09-09T12:42:20;7.53;;;1.70;;
73219;SDS011;61434;43.538;-5.688;2022-09-09T12:45:00;7.38;;;1.80;;
73219;SDS011;61434;43.538;-5.688;2022-09-09T12:49:59;9.18;;;1.90;;
73219;SDS011;61434;43.538;-5.688;2022-09-09T12:52:30;6.63;;;1.83;;
73219;SDS011;61434;43.538;-5.688;2022-09-09T12:54:59;7.40;;;1.95;;
73219;SDS011;61434;43.538;-5.688;2022-09-09T12:57:29;6.20;;;1.83;;
73219;SDS011;61434;43.538;-5.688;2022-09-09T13:00:11;8.85;;;1.98;;
73219;SDS011;61434;43.538;-5.688;2022-09-09T13:02:45;8.40;;;1.90;;
73219;SDS011;61434;43.538;-5.688;2022-09-09T13:05:17;7.53;;;1.70;;
73219;SDS011;61434;43.538;-5.688;2022-09-09T13:07:51;7.78;;;2.13;;
73219;SDS011;61434;43.538;-5.688;2022-09-09T13:10:26;8.55;;;2.20;;
73219;SDS011;61434;43.538;-5.688;2022-09-09T13:12:55;6.25;;;1.88;;
73219;SDS011;61434;43.538;-5.688;2022-09-09T13:15:22;6.57;;;2.20;;
73219;SDS011;61434;43.538;-5.688;2022-09-09T13:17:59;7.88;;;2.03;;
73219;SDS011;61434;43.538;-5.688;2022-09-09T13:20:36;9.63;;;2.55;;
73219;SDS011;61434;43.538;-5.688;2022-09-09T13:23:02;8.02;;;2.47;;
73219;SDS011;61434;43.538;-5.688;2022-09-09T13:25:28;6.95;;;2.25;;
73219;SDS011;61434;43.538;-5.688;2022-09-09T13:28:04;7.22;;;2.10;;
73219;SDS011;61434;43.538;-5.688;2022-09-09T13:35:34;9.55;;;2.42;;
73219;SDS011;61434;43.538;-5.688;2022-09-09T13:38:13;11.73;;;2.33;;
73219;SDS011;61434;43.538;-5.688;2022-09-09T13:40:40;10.00;;;2.15;;
73219;SDS011;61434;43.538;-5.688;2022-09-09T13:43:05;9.93;;;2.47;;
73219;SDS011;61434;43.538;-5.688;2022-09-09T13:45:51;9.23;;;2.50;;
73219;SDS011;61434;43.538;-5.688;2022-09-09T13:48:18;8.32;;;2.47;;
73219;SDS011;61434;43.538;-5.688;2022-09-09T13:50:53;9.07;;;2.40;;
73219;SDS011;61434;43.538;-5.688;2022-09-09T13:53:31;6.45;;;2.10;;
73219;SDS011;61434;43.538;-5.688;2022-09-09T13:55:57;6.83;;;2.07;;
73219;SDS011;61434;43.538;-5.688;2022-09-09T13:58:24;6.32;;;2.08;;
73219;SDS011;61434;43.538;-5.688;2022-09-09T14:00:51;6.35;;;1.90;;
73219;SDS011;61434;43.538;-5.688;2022-09-09T14:03:17;9.88;;;2.20;;
73219;SDS011;61434;43.538;-5.688;2022-09-09T14:05:43;7.70;;;2.23;;
73219;SDS011;61434;43.538;-5.688;2022-09-09T14:08:11;6.10;;;2.00;;
73219;SDS011;61434;43.538;-5.688;2022-09-09T14:10:46;6.60;;;2.33;;
73219;SDS011;61434;43.538;-5.688;2022-09-09T14:13:12;7.40;;;2.10;;
73219;SDS011;61434;43.538;-5.688;2022-09-09T14:15:38;8.73;;;2.10;;
73219;SDS011;61434;43.538;-5.688;2022-09-09T14:18:03;7.30;;;2.00;;
73219;SDS011;61434;43.538;-5.688;2022-09-09T14:20:29;6.90;;;2.33;;
73219;SDS011;61434;43.538;-5.688;2022-09-09T14:22:55;5.87;;;1.80;;
73219;SDS011;61434;43.538;-5.688;2022-09-09T14:25:23;6.97;;;2.03;;
73219;SDS011;61434;43.538;-5.688;2022-09-09T14:27:49;5.17;;;1.93;;
73219;SDS011;61434;43.538;-5.688;2022-09-09T14:30:16;7.15;;;2.42;;
73219;SDS011;61434;43.538;-5.688;2022-09-09T14:32:41;7.97;;;2.40;;
73219;SDS011;61434;43.538;-5.688;2022-09-09T14:35:07;7.43;;;2.00;;
73219;SDS011;61434;43.538;-5.688;2022-09-09T14:37:33;5.93;;;2.00;;
73219;SDS011;61434;43.538;-5.688;2022-09-09T14:39:58;6.33;;;2.00;;
73219;SDS011;61434;43.538;-5.688;2022-09-09T14:42:24;8.45;;;2.33;;
73219;SDS011;61434;43.538;-5.688;2022-09-09T14:44:49;7.83;;;1.70;;
73219;SDS011;61434;43.538;-5.688;2022-09-09T14:47:15;8.10;;;2.10;;
73219;SDS011;61434;43.538;-5.688;2022-09-09T14:49:40;7.67;;;1.93;;
73219;SDS011;61434;43.538;-5.688;2022-09-09T14:52:06;5.85;;;1.75;;
73219;SDS011;61434;43.538;-5.688;2022-09-09T14:54:31;9.27;;;2.00;;
73219;SDS011;61434;43.538;-5.688;2022-09-09T14:56:57;8.15;;;2.25;;
73219;SDS011;61434;43.538;-5.688;2022-09-09T14:59:23;6.00;;;1.60;;
73219;SDS011;61434;43.538;-5.688;2022-09-09T15:01:49;6.70;;;2.05;;
73219;SDS011;61434;43.538;-5.688;2022-09-09T15:04:15;6.15;;;1.60;;
73219;SDS011;61434;43.538;-5.688;2022-09-09T15:06:41;6.57;;;1.95;;
73219;SDS011;61434;43.538;-5.688;2022-09-09T15:09:09;6.32;;;1.70;;
73219;SDS011;61434;43.538;-5.688;2022-09-09T15:11:37;7.20;;;1.83;;
73219;SDS011;61434;43.538;-5.688;2022-09-09T15:14:03;5.75;;;2.10;;
73219;SDS011;61434;43.538;-5.688;2022-09-09T15:16:29;5.55;;;1.80;;
73219;SDS011;61434;43.538;-5.688;2022-09-09T15:18:57;8.05;;;1.95;;
73219;SDS011;61434;43.538;-5.688;2022-09-09T15:21:28;6.95;;;2.03;;
73219;SDS011;61434;43.538;-5.688;2022-09-09T15:23:57;7.90;;;2.00;;
73219;SDS011;61434;43.538;-5.688;2022-09-09T15:26:24;6.20;;;1.70;;
73219;SDS011;61434;43.538;-5.688;2022-09-09T15:28:50;6.78;;;2.00;;
73219;SDS011;61434;43.538;-5.688;2022-09-09T15:31:17;5.37;;;1.80;;
73219;SDS011;61434;43.538;-5.688;2022-09-09T15:33:51;4.75;;;1.80;;
73219;SDS011;61434;43.538;-5.688;2022-09-09T15:36:28;5.68;;;2.08;;
73219;SDS011;61434;43.538;-5.688;2022-09-09T15:38:53;7.80;;;1.67;;
73219;SDS011;61434;43.538;-5.688;2022-09-09T15:41:20;10.07;;;2.17;;
73219;SDS011;61434;43.538;-5.688;2022-09-09T15:43:51;6.32;;;1.80;;
73219;SDS011;61434;43.538;-5.688;2022-09-09T15:48:57;7.30;;;1.77;;
73219;SDS011;61434;43.538;-5.688;2022-09-09T15:51:27;5.32;;;1.52;;
73219;SDS011;61434;43.538;-5.688;2022-09-09T15:53:56;5.72;;;1.58;;
73219;SDS011;61434;43.538;-5.688;2022-09-09T15:56:23;5.47;;;1.55;;
73219;SDS011;61434;43.538;-5.688;2022-09-09T15:58:50;7.18;;;1.55;;
73219;SDS011;61434;43.538;-5.688;2022-09-09T16:01:17;5.38;;;1.50;;
73219;SDS011;61434;43.538;-5.688;2022-09-09T16:03:44;6.38;;;1.70;;
73219;SDS011;61434;43.538;-5.688;2022-09-09T16:06:12;6.18;;;1.80;;
73219;SDS011;61434;43.538;-5.688;2022-09-09T16:08:42;6.45;;;1.70;;
73219;SDS011;61434;43.538;-5.688;2022-09-09T16:13:35;6.30;;;1.80;;
73219;SDS011;61434;43.538;-5.688;2022-09-09T16:16:02;7.32;;;1.75;;
73219;SDS011;61434;43.538;-5.688;2022-09-09T16:18:33;5.90;;;1.65;;
73219;SDS011;61434;43.538;-5.688;2022-09-09T16:21:00;6.18;;;1.65;;
73219;SDS011;61434;43.538;-5.688;2022-09-09T16:23:26;5.93;;;1.70;;
73219;SDS011;61434;43.538;-5.688;2022-09-09T16:25:55;7.95;;;1.50;;
73219;SDS011;61434;43.538;-5.688;2022-09-09T16:28:20;8.20;;;1.90;;
73219;SDS011;61434;43.538;-5.688;2022-09-09T16:30:47;8.48;;;1.60;;
73219;SDS011;61434;43.538;-5.688;2022-09-09T16:33:13;7.65;;;1.80;;
73219;SDS011;61434;43.538;-5.688;2022-09-09T16:35:40;7.07;;;1.80;;
73219;SDS011;61434;43.538;-5.688;2022-09-09T16:38:05;5.70;;;1.50;;
73219;SDS011;61434;43.538;-5.688;2022-09-09T16:40:35;5.15;;;1.70;;
73219;SDS011;61434;43.538;-5.688;2022-09-09T16:43:01;7.47;;;1.57;;
73219;SDS011;61434;43.538;-5.688;2022-09-09T16:45:30;5.75;;;1.60;;
73219;SDS011;61434;43.538;-5.688;2022-09-09T16:47:57;5.95;;;1.33;;
73219;SDS011;61434;43.538;-5.688;2022-09-09T16:50:23;6.93;;;1.50;;
73219;SDS011;61434;43.538;-5.688;2022-09-09T16:52:48;5.30;;;1.88;;
73219;SDS011;61434;43.538;-5.688;2022-09-09T16:55:14;6.00;;;1.40;;
73219;SDS011;61434;43.538;-5.688;2022-09-09T16:57:39;8.63;;;1.73;;
73219;SDS011;61434;43.538;-5.688;2022-09-09T17:00:06;6.60;;;1.60;;
73219;SDS011;61434;43.538;-5.688;2022-09-09T17:02:32;7.63;;;1.92;;
73219;SDS011;61434;43.538;-5.688;2022-09-09T17:04:58;6.83;;;1.60;;
73219;SDS011;61434;43.538;-5.688;2022-09-09T17:07:24;5.40;;;1.60;;